Time;durP1;ratioP1;P1;durP2;ratioP2;P2;SDS_P1;SDS_P2;PMS_P1;PMS_P2;Temp;Humidity;BMP_temperature;BMP_pressure;BME280_temperature;BME280_humidity;BME280_pressure;Samples;Min_cycle;Max_cycle;Signal;HPM_P1;HPM_P2
2023/08/10 00:00:30;;;;;;;3.37;2.57;;;;;;;14.57;100.00;98525.06;5050545;28;20757;-88
2023/08/10 00:02:57;;;;;;;4.60;3.27;;;;;;;14.55;100.00;98524.34;5050940;28;20462;-88
2023/08/10 00:05:25;;;;;;;3.60;2.90;;;;;;;14.52;100.00;98529.88;5051054;28;20228;-89
2023/08/10 00:07:51;;;;;;;3.37;2.83;;;;;;;14.46;100.00;98528.56;5051114;28;20286;-88
2023/08/10 00:10:18;;;;;;;3.73;2.87;;;;;;;14.38;100.00;98524.81;5050828;28;20224;-88
2023/08/10 00:12:44;;;;;;;3.10;2.57;;;;;;;14.31;100.00;98528.91;5050862;28;20212;-88
2023/08/10 00:15:11;;;;;;;3.37;2.93;;;;;;;14.30;100.00;98529.88;5050944;28;20204;-88
2023/08/10 00:17:38;;;;;;;2.90;2.57;;;;;;;14.28;100.00;98531.81;5050826;28;20208;-89
2023/08/10 00:20:07;;;;;;;3.43;2.90;;;;;;;14.23;100.00;98520.69;5050472;28;20621;-88
2023/08/10 00:22:35;;;;;;;3.57;2.77;;;;;;;14.22;100.00;98524.28;5050857;28;20208;-88
2023/08/10 00:25:02;;;;;;;2.87;2.57;;;;;;;14.14;100.00;98524.03;5050673;28;20231;-88
2023/08/10 00:27:29;;;;;;;3.50;2.53;;;;;;;14.07;100.00;98522.81;5051132;28;20601;-88
2023/08/10 00:29:56;;;;;;;3.20;2.73;;;;;;;14.09;100.00;98512.91;5050289;28;20230;-88
2023/08/10 00:32:22;;;;;;;3.37;2.80;;;;;;;14.07;100.00;98515.69;5050721;28;20238;-88
2023/08/10 00:34:49;;;;;;;3.00;2.63;;;;;;;14.05;100.00;98514.94;5050979;28;20204;-89
2023/08/10 00:37:16;;;;;;;2.90;2.53;;;;;;;14.00;100.00;98514.44;5050631;28;20208;-88
2023/08/10 00:39:44;;;;;;;3.20;2.70;;;;;;;14.00;100.00;98513.63;5050719;28;20224;-88
2023/08/10 00:42:11;;;;;;;3.00;2.63;;;;;;;13.96;100.00;98514.81;5050834;28;20210;-88
2023/08/10 00:44:39;;;;;;;3.47;2.57;;;;;;;13.89;100.00;98510.94;5050845;28;20214;-88
2023/08/10 00:47:06;;;;;;;2.50;2.20;;;;;;;13.86;100.00;98513.81;5050490;28;20281;-88
2023/08/10 00:49:33;;;;;;;2.93;2.63;;;;;;;13.80;100.00;98516.94;5050384;28;20236;-88
2023/08/10 00:52:00;;;;;;;3.10;2.47;;;;;;;13.76;100.00;98512.84;5050708;28;20215;-88
2023/08/10 00:54:27;;;;;;;3.33;2.70;;;;;;;13.77;100.00;98525.16;5050624;28;20207;-88
2023/08/10 00:56:55;;;;;;;3.20;2.40;;;;;;;13.71;100.00;98525.59;5051587;28;20476;-88
2023/08/10 00:59:21;;;;;;;3.33;2.37;;;;;;;13.62;100.00;98521.00;5052998;28;20231;-88
2023/08/10 01:01:48;;;;;;;3.30;2.33;;;;;;;13.58;100.00;98530.16;5054252;28;20228;-88
2023/08/10 01:04:14;;;;;;;3.53;2.60;;;;;;;13.58;100.00;98527.50;5054632;28;20217;-88
2023/08/10 01:06:47;;;;;;;4.10;2.67;;;;;;;13.52;100.00;98530.63;5054020;28;20211;-88
2023/08/10 01:09:19;;;;;;;3.13;2.83;;;;;;;13.44;100.00;98531.19;5053597;28;20239;-88
2023/08/10 01:11:55;;;;;;;2.80;2.50;;;;;;;13.42;100.00;98524.28;5054044;28;20377;-88
2023/08/10 01:14:30;;;;;;;2.80;2.30;;;;;;;13.39;100.00;98524.53;5053747;28;20672;-88
2023/08/10 01:16:59;;;;;;;2.83;2.50;;;;;;;13.38;100.00;98528.97;5054045;28;20207;-87
2023/08/10 01:19:32;;;;;;;4.77;3.07;;;;;;;13.33;100.00;98525.81;5053190;28;20234;-87
2023/08/10 01:22:07;;;;;;;3.70;3.20;;;;;;;13.31;100.00;98535.69;5053789;28;20223;-87
2023/08/10 01:24:41;;;;;;;4.37;3.07;;;;;;;13.27;100.00;98525.44;5053711;28;20221;-88
2023/08/10 01:27:11;;;;;;;3.90;2.87;;;;;;;13.22;100.00;98539.06;5053868;28;20215;-88
2023/08/10 01:29:37;;;;;;;3.80;3.00;;;;;;;13.19;100.00;98536.59;5053209;28;20404;-87
2023/08/10 01:32:04;;;;;;;4.40;3.03;;;;;;;13.14;100.00;98537.91;5053550;28;20209;-84
2023/08/10 01:34:31;;;;;;;2.97;2.63;;;;;;;13.14;100.00;98532.59;5053678;28;20214;-85
2023/08/10 01:36:57;;;;;;;3.00;2.73;;;;;;;13.10;100.00;98531.13;5053977;28;20228;-87
2023/08/10 01:39:24;;;;;;;3.57;3.03;;;;;;;13.06;100.00;98526.97;5053222;28;20233;-87
2023/08/10 01:41:51;;;;;;;4.80;3.07;;;;;;;13.01;100.00;98523.84;5053197;28;20210;-86
2023/08/10 01:44:19;;;;;;;2.70;2.50;;;;;;;12.93;100.00;98528.81;5053347;28;20215;-86
2023/08/10 01:46:48;;;;;;;3.03;2.73;;;;;;;12.91;100.00;98522.78;5053543;28;20212;-87
2023/08/10 01:49:17;;;;;;;4.27;3.20;;;;;;;12.98;100.00;98527.56;5052814;28;20246;-87
2023/08/10 01:51:46;;;;;;;4.43;3.23;;;;;;;12.96;100.00;98531.28;5053067;28;20207;-87
2023/08/10 01:54:14;;;;;;;3.73;3.13;;;;;;;12.87;100.00;98526.59;5053319;28;20218;-87
2023/08/10 01:56:41;;;;;;;4.07;3.13;;;;;;;12.83;100.00;98530.44;5053290;28;20212;-87
2023/08/10 01:59:07;;;;;;;4.00;3.20;;;;;;;12.80;100.00;98534.16;5052914;28;20220;-87
2023/08/10 02:01:35;;;;;;;4.07;3.53;;;;;;;12.77;100.00;98537.03;5053068;28;20211;-87
2023/08/10 02:04:02;;;;;;;3.77;3.20;;;;;;;12.73;100.00;98526.75;5052720;28;20219;-85
2023/08/10 02:06:28;;;;;;;3.60;3.10;;;;;;;12.71;100.00;98526.03;5052915;28;20209;-88
2023/08/10 02:08:55;;;;;;;3.73;3.00;;;;;;;12.67;100.00;98535.13;5051746;28;20237;-88
2023/08/10 02:11:21;;;;;;;3.30;3.00;;;;;;;12.58;100.00;98536.63;5052564;28;20659;-87
2023/08/10 02:13:48;;;;;;;4.57;3.13;;;;;;;12.57;100.00;98542.03;5052907;28;20297;-88
2023/08/10 02:16:15;;;;;;;3.23;2.67;;;;;;;12.53;100.00;98530.81;5052705;28;20677;-86
2023/08/10 02:21:10;;;;;;;3.53;3.17;;;;;;;12.51;100.00;98539.81;5066426;28;20234;-86
2023/08/10 02:23:37;;;;;;;5.23;3.93;;;;;;;12.48;100.00;98534.75;5071224;28;20215;-87
2023/08/10 02:26:03;;;;;;;5.00;3.70;;;;;;;12.50;100.00;98532.81;5070733;28;20693;-87
2023/08/10 02:28:30;;;;;;;4.53;3.97;;;;;;;12.51;100.00;98534.53;5070718;28;20225;-87
2023/08/10 02:30:56;;;;;;;4.37;3.53;;;;;;;12.51;100.00;98530.06;5070511;28;20238;-88
2023/08/10 02:33:23;;;;;;;5.80;4.40;;;;;;;12.51;100.00;98535.38;5070479;28;20278;-87
2023/08/10 02:35:49;;;;;;;5.40;4.20;;;;;;;12.49;100.00;98532.00;5071189;28;20235;-86
2023/08/10 02:38:17;;;;;;;4.87;4.10;;;;;;;12.49;100.00;98534.66;5069463;28;20204;-88
2023/08/10 02:40:44;;;;;;;4.97;4.00;;;;;;;12.49;100.00;98531.13;5067949;28;20235;-86
2023/08/10 02:43:11;;;;;;;4.70;3.80;;;;;;;12.48;100.00;98534.75;5067039;28;20698;-86
2023/08/10 02:45:38;;;;;;;5.43;4.07;;;;;;;12.45;100.00;98533.16;5066331;28;20221;-88
2023/08/10 02:48:05;;;;;;;4.80;3.60;;;;;;;12.45;100.00;98532.28;5068706;28;20207;-87
2023/08/10 02:50:32;;;;;;;5.13;4.10;;;;;;;12.43;100.00;98531.56;5077932;28;20321;-86
2023/08/10 02:52:58;;;;;;;4.60;4.10;;;;;;;12.44;100.00;98543.88;5077692;28;20266;-88
2023/08/10 02:55:27;;;;;;;4.70;3.70;;;;;;;12.44;100.00;98539.41;5077268;28;20192;-85
2023/08/10 02:57:53;;;;;;;4.60;4.03;;;;;;;12.39;100.00;98538.03;5063069;28;20211;-86
2023/08/10 03:00:20;;;;;;;4.43;3.80;;;;;;;12.35;100.00;98550.66;5062150;28;20268;-86
2023/08/10 03:02:50;;;;;;;6.13;3.90;;;;;;;12.31;100.00;98543.03;5062622;28;20210;-88
2023/08/10 03:05:16;;;;;;;4.27;3.60;;;;;;;12.25;100.00;98544.31;5059382;28;20205;-86
2023/08/10 03:07:44;;;;;;;5.90;3.90;;;;;;;12.21;100.00;98548.13;5062312;28;20230;-86
2023/08/10 03:10:11;;;;;;;4.27;3.83;;;;;;;12.18;100.00;98552.78;5062612;28;20240;-86
2023/08/10 03:12:39;;;;;;;4.47;3.63;;;;;;;12.17;100.00;98556.41;5065294;28;20215;-87
2023/08/10 03:15:09;;;;;;;4.13;3.60;;;;;;;12.20;100.00;98556.16;5064311;28;20212;-86
2023/08/10 03:17:35;;;;;;;5.20;4.37;;;;;;;12.27;100.00;98552.13;5063252;28;20212;-87
2023/08/10 03:20:06;;;;;;;4.37;3.90;;;;;;;12.30;100.00;98551.94;5060499;28;20237;-87
2023/08/10 03:22:33;;;;;;;5.97;3.47;;;;;;;12.32;100.00;98540.28;5062829;28;20266;-88
2023/08/10 03:25:00;;;;;;;3.97;3.40;;;;;;;12.33;100.00;98535.81;5061178;28;20488;-88
2023/08/10 03:27:26;;;;;;;5.13;4.00;;;;;;;12.29;100.00;98523.75;5065446;28;20292;-86
2023/08/10 03:29:54;;;;;;;5.23;3.63;;;;;;;12.25;100.00;98533.72;5061737;28;20237;-88
2023/08/10 03:32:20;;;;;;;4.10;3.53;;;;;;;12.22;100.00;98538.38;5057460;28;20205;-88
2023/08/10 03:34:47;;;;;;;3.90;3.50;;;;;;;12.20;100.00;98534.97;5059071;28;20210;-88
2023/08/10 03:37:14;;;;;;;4.13;3.47;;;;;;;12.09;100.00;98543.66;5058317;28;20215;-86
2023/08/10 03:39:40;;;;;;;3.87;3.23;;;;;;;12.04;100.00;98539.66;5060518;28;20320;-87
2023/08/10 03:42:07;;;;;;;3.67;2.70;;;;;;;12.00;100.00;98544.31;5059411;28;20213;-86
2023/08/10 03:44:34;;;;;;;4.63;3.57;;;;;;;12.03;100.00;98556.47;5057538;28;20238;-87
2023/08/10 03:47:02;;;;;;;4.87;3.57;;;;;;;12.01;100.00;98556.59;5055138;28;20208;-88
2023/08/10 03:49:28;;;;;;;4.30;3.60;;;;;;;12.01;100.00;98553.09;5056646;28;20479;-88
2023/08/10 03:51:55;;;;;;;3.80;3.40;;;;;;;12.02;100.00;98555.63;5059927;28;20214;-88
2023/08/10 03:54:22;;;;;;;5.07;3.60;;;;;;;12.03;100.00;98559.13;5058521;28;20232;-88
2023/08/10 03:56:48;;;;;;;3.67;3.30;;;;;;;12.01;100.00;98556.59;5056812;28;20214;-86
2023/08/10 03:59:15;;;;;;;3.87;3.07;;;;;;;11.97;100.00;98549.81;5055659;28;20552;-87
2023/08/10 04:01:43;;;;;;;2.87;2.57;;;;;;;12.03;100.00;98553.81;5054487;28;20209;-88
2023/08/10 04:04:11;;;;;;;4.00;3.30;;;;;;;12.07;100.00;98557.97;5055149;28;20222;-88
2023/08/10 04:06:37;;;;;;;5.13;3.60;;;;;;;12.14;100.00;98553.94;5054502;28;20219;-87
2023/08/10 04:09:04;;;;;;;3.70;3.23;;;;;;;12.14;100.00;98548.63;5053772;28;20247;-87
2023/08/10 04:11:31;;;;;;;3.50;2.97;;;;;;;12.17;100.00;98551.09;5055716;28;20248;-87
2023/08/10 04:13:58;;;;;;;3.50;3.20;;;;;;;12.17;100.00;98545.78;5056479;28;20412;-87
2023/08/10 04:16:24;;;;;;;5.40;3.57;;;;;;;12.20;100.00;98546.44;5055832;28;20224;-86
2023/08/10 04:18:51;;;;;;;4.10;3.27;;;;;;;12.23;100.00;98551.50;5053479;28;20204;-88
2023/08/10 04:21:18;;;;;;;4.43;3.77;;;;;;;12.31;100.00;98553.63;5054460;28;20219;-87
2023/08/10 04:23:45;;;;;;;3.93;3.40;;;;;;;12.30;100.00;98551.94;5054711;28;20664;-87
2023/08/10 04:26:12;;;;;;;3.40;3.10;;;;;;;12.29;100.00;98559.03;5055520;28;20207;-86
2023/08/10 04:28:38;;;;;;;4.80;4.10;;;;;;;12.30;100.00;98559.88;5051628;28;20762;-86
2023/08/10 04:31:05;;;;;;;4.50;3.67;;;;;;;12.31;100.00;98564.22;5051773;28;20297;-88
2023/08/10 04:33:32;;;;;;;4.27;3.73;;;;;;;12.32;100.00;98565.94;5055306;28;20228;-89
2023/08/10 04:35:58;;;;;;;3.90;3.30;;;;;;;12.29;100.00;98577.59;5055790;28;20206;-88
2023/08/10 04:38:27;;;;;;;4.13;3.63;;;;;;;12.32;100.00;98576.53;5055331;28;20212;-89
2023/08/10 04:40:53;;;;;;;3.80;3.23;;;;;;;12.34;100.00;98575.47;5055072;28;20899;-89
2023/08/10 04:43:20;;;;;;;4.10;3.40;;;;;;;12.36;100.00;98572.72;5055754;28;20680;-87
2023/08/10 04:45:47;;;;;;;4.53;3.73;;;;;;;12.46;100.00;98569.31;5055137;28;20324;-88
2023/08/10 04:48:15;;;;;;;5.50;4.23;;;;;;;12.54;100.00;98571.44;5055424;28;20217;-87
2023/08/10 04:50:41;;;;;;;5.27;4.10;;;;;;;12.60;100.00;98571.00;5054688;28;20238;-87
2023/08/10 04:53:08;;;;;;;6.37;5.07;;;;;;;12.62;100.00;98563.78;5054938;28;20205;-87
2023/08/10 04:55:36;;;;;;;7.87;5.17;;;;;;;12.63;100.00;98570.78;5055295;28;20213;-89
2023/08/10 04:58:02;;;;;;;8.20;4.97;;;;;;;12.67;100.00;98573.13;5055214;28;20213;-88
2023/08/10 05:00:29;;;;;;;8.93;5.00;;;;;;;12.73;100.00;98566.53;5054423;28;20234;-87
2023/08/10 05:02:55;;;;;;;8.33;5.10;;;;;;;12.75;100.00;98578.72;5054595;28;20218;-87
2023/08/10 05:05:22;;;;;;;8.07;5.27;;;;;;;12.73;100.00;98577.13;5054488;28;20210;-89
2023/08/10 05:07:49;;;;;;;6.93;4.50;;;;;;;12.73;100.00;98577.13;5054817;28;20299;-87
2023/08/10 05:10:15;;;;;;;8.97;5.30;;;;;;;12.76;100.00;98579.56;5054361;28;20243;-87
2023/08/10 05:12:43;;;;;;;8.93;6.00;;;;;;;12.82;100.00;98577.34;5054715;28;20227;-87
2023/08/10 05:15:11;;;;;;;11.30;6.07;;;;;;;12.92;100.00;98577.53;5054461;28;20209;-88
2023/08/10 05:17:38;;;;;;;10.03;5.80;;;;;;;13.04;100.00;98584.63;5054431;28;20268;-86
2023/08/10 05:20:10;;;;;;;13.03;7.10;;;;;;;13.15;100.00;98584.72;5053834;28;20658;-87
2023/08/10 05:22:37;;;;;;;10.50;6.20;;;;;;;13.21;100.00;98579.78;5054457;28;20211;-87
2023/08/10 05:25:05;;;;;;;9.90;5.43;;;;;;;13.30;100.00;98583.59;5054454;28;20572;-87
2023/08/10 05:27:32;;;;;;;11.00;6.50;;;;;;;13.40;100.00;98584.63;5054375;28;20216;-86
2023/08/10 05:30:00;;;;;;;13.13;7.23;;;;;;;13.50;100.00;98583.00;5053767;28;20239;-87
2023/08/10 05:32:26;;;;;;;15.00;8.13;;;;;;;13.64;100.00;98582.81;5053947;28;20235;-87
2023/08/10 05:34:53;;;;;;;23.17;10.40;;;;;;;13.76;100.00;98584.56;5054119;28;20210;-88
2023/08/10 05:37:20;;;;;;;23.53;10.90;;;;;;;13.87;100.00;98579.28;5053894;28;20211;-87
2023/08/10 05:39:46;;;;;;;20.90;10.13;;;;;;;13.91;100.00;98586.06;5053749;28;20238;-87
2023/08/10 05:42:13;;;;;;;17.50;9.77;;;;;;;14.01;100.00;98582.59;5053803;28;20211;-87
2023/08/10 05:44:40;;;;;;;18.63;9.47;;;;;;;14.18;100.00;98589.28;5053875;28;20246;-88
2023/08/10 05:47:08;;;;;;;17.03;9.03;;;;;;;14.28;100.00;98598.28;5053894;28;20210;-87
2023/08/10 05:49:34;;;;;;;21.60;11.00;;;;;;;14.47;100.00;98602.06;5053594;28;20235;-86
2023/08/10 05:52:01;;;;;;;18.70;11.13;;;;;;;14.79;100.00;98602.22;5053976;28;20588;-88
2023/08/10 05:54:27;;;;;;;21.03;12.07;;;;;;;15.26;100.00;98604.59;5053907;28;20204;-88
2023/08/10 05:56:55;;;;;;;12.93;9.47;;;;;;;15.61;100.00;98607.94;5053628;28;20237;-87
2023/08/10 05:59:21;;;;;;;10.70;7.73;;;;;;;15.75;100.00;98616.50;5053228;28;20779;-86
2023/08/10 06:01:48;;;;;;;9.50;6.73;;;;;;;15.75;100.00;98620.97;5053414;28;20302;-86
2023/08/10 06:04:16;;;;;;;7.43;5.60;;;;;;;15.76;100.00;98617.38;5053619;28;20337;-86
2023/08/10 06:06:43;;;;;;;6.77;5.57;;;;;;;15.75;100.00;98626.31;5053428;28;20208;-87
2023/08/10 06:09:09;;;;;;;6.00;5.07;;;;;;;15.77;100.00;98635.88;5053219;28;20227;-88
2023/08/10 06:11:36;;;;;;;4.87;4.37;;;;;;;15.71;100.00;98631.03;5053495;28;20256;-86
2023/08/10 06:14:02;;;;;;;5.00;4.50;;;;;;;15.66;100.00;98633.25;5053414;28;20212;-86
2023/08/10 06:16:29;;;;;;;4.27;3.87;;;;;;;15.62;100.00;98626.47;5053587;28;20215;-86
2023/08/10 06:18:56;;;;;;;5.50;5.00;;;;;;;15.59;100.00;98632.03;5052961;28;20740;-87
2023/08/10 06:21:23;;;;;;;4.90;3.97;;;;;;;15.58;100.00;98634.84;5053701;28;20218;-85
2023/08/10 06:23:50;;;;;;;5.70;3.90;;;;;;;15.58;100.00;98635.69;5053747;28;20641;-85
2023/08/10 06:26:17;;;;;;;4.20;3.80;;;;;;;15.61;100.00;98637.25;5053935;28;20212;-80
2023/08/10 06:28:44;;;;;;;3.63;3.33;;;;;;;15.66;100.00;98640.41;5053742;28;20303;-81
2023/08/10 06:31:11;;;;;;;5.43;3.93;;;;;;;15.71;100.00;98646.19;5064150;28;20768;-81
2023/08/10 06:33:37;;;;;;;4.03;3.50;;;;;;;15.75;100.00;98647.63;5061421;28;20208;-80
2023/08/10 06:36:06;;;;;;;5.57;3.83;;;;;;;15.79;100.00;98649.06;5063876;28;20208;-81
2023/08/10 06:38:35;;;;;;;3.90;3.43;;;;;;;15.83;100.00;98650.53;5060121;28;20239;-81
2023/08/10 06:41:02;;;;;;;4.33;3.93;;;;;;;15.88;100.00;98638.50;5052314;28;20262;-81
2023/08/10 06:43:29;;;;;;;4.13;3.70;;;;;;;15.91;100.00;98648.94;5052541;28;20215;-81
2023/08/10 06:45:56;;;;;;;4.20;3.50;;;;;;;15.99;100.00;98646.47;5052628;28;20208;-84
2023/08/10 06:48:22;;;;;;;4.33;3.90;;;;;;;16.04;100.00;98650.44;5052526;28;20208;-82
2023/08/10 06:50:49;;;;;;;5.43;3.60;;;;;;;16.08;100.00;98657.22;5051890;28;20682;-81
2023/08/10 06:53:16;;;;;;;4.40;3.70;;;;;;;16.23;100.00;98660.44;5052342;28;20247;-81
2023/08/10 06:55:44;;;;;;;4.17;3.77;;;;;;;16.28;100.00;98664.41;5051781;28;20581;-85
2023/08/10 06:58:12;;;;;;;4.57;3.87;;;;;;;16.38;100.00;98672.50;5052930;28;20283;-86
2023/08/10 07:00:39;;;;;;;3.80;3.40;;;;;;;16.39;100.00;98676.88;5050632;28;20228;-85
2023/08/10 07:03:06;;;;;;;3.63;3.17;;;;;;;16.42;100.00;98681.94;5051740;28;20223;-86
2023/08/10 07:05:37;;;;;;;3.37;3.07;;;;;;;16.50;100.00;98679.47;5051486;28;20211;-88
2023/08/10 07:08:05;;;;;;;4.80;3.83;;;;;;;16.58;100.00;98677.84;5051558;28;20226;-86
2023/08/10 07:10:31;;;;;;;4.23;2.77;;;;;;;16.62;100.00;98676.63;5051017;28;20236;-86
2023/08/10 07:12:59;;;;;;;4.33;3.33;;;;;;;16.71;100.00;98667.00;5051986;28;20618;-87
2023/08/10 07:15:26;;;;;;;3.40;2.90;;;;;;;16.78;100.00;98661.00;5050297;28;20204;-87
2023/08/10 07:17:52;;;;;;;3.63;3.17;;;;;;;16.86;100.00;98666.53;5051957;28;20338;-84
2023/08/10 07:20:19;;;;;;;4.40;3.07;;;;;;;16.97;100.00;98663.78;5051321;28;20235;-87
2023/08/10 07:22:47;;;;;;;3.47;3.13;;;;;;;17.05;100.00;98661.28;5051694;28;20299;-86
2023/08/10 07:25:16;;;;;;;4.20;3.67;;;;;;;17.17;100.00;98665.56;5051447;28;20214;-84
2023/08/10 07:27:44;;;;;;;3.80;3.40;;;;;;;17.20;100.00;98659.09;5053104;28;20227;-82
2023/08/10 07:30:14;;;;;;;2.97;2.67;;;;;;;17.33;100.00;98671.25;5073710;28;20228;-84
2023/08/10 07:32:41;;;;;;;3.97;2.80;;;;;;;17.47;100.00;98670.91;5074820;28;20192;-85
2023/08/10 07:35:08;;;;;;;3.60;3.20;;;;;;;17.60;100.00;98671.50;5074469;28;20271;-84
2023/08/10 07:37:35;;;;;;;3.70;3.20;;;;;;;17.74;100.00;98676.47;5075563;28;20247;-86
2023/08/10 07:40:02;;;;;;;2.97;2.67;;;;;;;17.88;100.00;98668.06;5065932;28;20389;-85
2023/08/10 07:42:28;;;;;;;3.43;3.07;;;;;;;18.02;100.00;98664.97;5056173;28;20207;-87
2023/08/10 07:44:55;;;;;;;3.00;2.70;;;;;;;18.20;100.00;98663.31;5052689;28;20215;-87
2023/08/10 07:47:23;;;;;;;2.90;2.43;;;;;;;18.28;100.00;98668.78;5053131;28;20214;-87
2023/08/10 07:49:49;;;;;;;2.70;2.40;;;;;;;18.39;100.00;98679.38;5052506;28;20233;-86
2023/08/10 07:52:16;;;;;;;2.70;2.30;;;;;;;18.57;100.00;98677.69;5053745;28;20542;-83
2023/08/10 07:54:42;;;;;;;4.50;2.63;;;;;;;18.56;100.00;98677.81;5051693;28;20204;-82
2023/08/10 07:57:09;;;;;;;2.43;2.23;;;;;;;18.63;100.00;98677.13;5051305;28;20205;-87
2023/08/10 07:59:35;;;;;;;2.50;2.30;;;;;;;18.72;100.00;98691.47;5050875;28;20232;-88
2023/08/10 08:02:02;;;;;;;3.53;2.30;;;;;;;18.89;100.00;98682.72;5051669;28;20207;-91
2023/08/10 08:04:30;;;;;;;2.50;2.30;;;;;;;19.00;100.00;98672.66;5051260;28;20303;-85
2023/08/10 08:06:56;;;;;;;3.60;2.60;;;;;;;19.08;100.00;98670.09;5053443;28;20212;-84
2023/08/10 08:09:23;;;;;;;4.43;3.20;;;;;;;19.17;100.00;98671.91;5057419;28;20232;-86
2023/08/10 08:11:50;;;;;;;2.93;2.67;;;;;;;19.31;100.00;98666.09;5058469;28;20600;-85
2023/08/10 08:14:16;;;;;;;2.90;2.60;;;;;;;19.45;100.00;98665.59;5058982;28;20217;-84
2023/08/10 08:16:43;;;;;;;2.90;2.60;;;;;;;19.61;100.00;98676.53;5056754;28;20212;-85
2023/08/10 08:21:38;;;;;;;3.83;2.50;;;;;;;19.83;100.00;98672.63;5053368;28;20258;-91
2023/08/10 08:24:05;;;;;;;2.57;2.13;;;;;;;19.88;99.77;98673.84;5055046;28;20231;-91
2023/08/10 08:26:32;;;;;;;2.67;2.47;;;;;;;19.93;99.16;98673.41;5054974;28;20208;-90
2023/08/10 08:28:59;;;;;;;2.47;2.27;;;;;;;19.91;98.01;98667.31;5054693;28;20207;-91
2023/08/10 08:31:26;;;;;;;3.07;2.40;;;;;;;19.86;98.74;98669.63;5054586;28;20250;-87
2023/08/10 08:33:53;;;;;;;2.93;2.60;;;;;;;19.93;99.41;98668.88;5055002;28;20592;-86
2023/08/10 08:36:19;;;;;;;3.07;2.60;;;;;;;19.99;99.47;98665.56;5054956;28;20212;-85
2023/08/10 08:38:47;;;;;;;3.00;2.70;;;;;;;20.12;99.62;98667.94;5054774;28;20593;-88
2023/08/10 08:41:18;;;;;;;2.90;2.53;;;;;;;20.13;98.31;98662.44;5054024;28;20220;-88
2023/08/10 08:43:47;;;;;;;2.53;2.20;;;;;;;20.12;97.36;98658.03;5054681;28;20215;-88
2023/08/10 08:46:14;;;;;;;3.13;2.80;;;;;;;20.07;97.95;98662.19;5053224;28;20636;-89
2023/08/10 08:48:42;;;;;;;3.27;2.97;;;;;;;20.08;98.38;98659.34;5053260;28;20234;-82
2023/08/10 08:51:08;;;;;;;3.37;2.80;;;;;;;20.13;98.25;98662.44;5053208;28;20615;-84
2023/08/10 08:53:35;;;;;;;3.27;2.97;;;;;;;20.13;98.19;98662.44;5053245;28;20214;-84
2023/08/10 08:56:03;;;;;;;3.20;2.47;;;;;;;20.19;97.17;98656.41;5053118;28;20220;-85
2023/08/10 08:58:30;;;;;;;3.40;2.77;;;;;;;20.24;96.05;98651.44;5053808;28;20212;-84
2023/08/10 09:00:56;;;;;;;3.43;2.90;;;;;;;20.29;94.77;98646.44;5052820;28;20719;-85
2023/08/10 09:03:25;;;;;;;3.30;2.70;;;;;;;20.27;94.16;98645.78;5053579;28;20218;-85
2023/08/10 09:05:51;;;;;;;2.60;2.40;;;;;;;20.32;95.01;98654.22;5051140;28;20235;-84
2023/08/10 09:08:19;;;;;;;2.83;2.60;;;;;;;20.21;94.32;98646.38;5050884;28;20208;-86
2023/08/10 09:10:47;;;;;;;2.63;2.43;;;;;;;20.30;96.84;98647.31;5050563;28;20724;-83
2023/08/10 09:13:17;;;;;;;4.17;2.83;;;;;;;20.47;98.78;98649.97;5051205;28;20227;-84
2023/08/10 09:15:44;;;;;;;2.73;2.40;;;;;;;20.52;95.88;98647.66;5053178;28;20311;-85
2023/08/10 09:18:11;;;;;;;2.67;2.47;;;;;;;20.50;92.39;98628.19;5052390;28;20454;-81
2023/08/10 09:20:38;;;;;;;2.77;2.40;;;;;;;20.55;92.78;98631.22;5050370;28;20255;-84
2023/08/10 09:23:05;;;;;;;2.73;2.53;;;;;;;20.58;91.62;98614.81;5050769;28;20226;-83
2023/08/10 09:25:37;;;;;;;2.87;2.40;;;;;;;20.62;90.16;98616.19;5050311;28;20234;-86
2023/08/10 09:28:09;;;;;;;2.40;2.20;;;;;;;20.73;90.21;98623.97;5052360;28;20208;-86
2023/08/10 09:30:37;;;;;;;2.73;2.20;;;;;;;20.83;89.97;98616.66;5052815;28;20232;-89
2023/08/10 09:33:05;;;;;;;2.50;2.30;;;;;;;20.87;89.35;98612.69;5053326;28;20215;-89
2023/08/10 09:35:32;;;;;;;2.83;2.53;;;;;;;20.97;88.75;98616.09;5053126;28;20222;-90
2023/08/10 09:38:03;;;;;;;3.10;2.40;;;;;;;21.05;89.13;98615.31;5052830;28;20679;-92
2023/08/10 09:40:30;;;;;;;2.83;2.60;;;;;;;21.13;88.38;98605.47;5052517;28;20324;-90
2023/08/10 09:42:57;;;;;;;2.20;1.83;;;;;;;21.26;88.67;98605.84;5052722;28;20675;-87
2023/08/10 09:45:23;;;;;;;2.43;2.07;;;;;;;21.45;87.77;98600.22;5053138;28;20310;-82
2023/08/10 09:47:51;;;;;;;2.47;2.20;;;;;;;21.51;87.40;98606.81;5052283;28;20861;-84
2023/08/10 09:50:18;;;;;;;2.60;2.40;;;;;;;21.59;84.24;98591.50;5052723;28;20235;-90
2023/08/10 09:52:46;;;;;;;6.13;2.80;;;;;;;21.69;86.13;98594.94;5051564;28;20211;-89
2023/08/10 09:55:12;;;;;;;2.43;2.23;;;;;;;21.68;83.26;98585.19;5049540;28;20246;-90
2023/08/10 09:57:40;;;;;;;3.50;2.50;;;;;;;21.70;83.19;98588.56;5049524;28;20212;-83
2023/08/10 10:00:14;;;;;;;2.83;2.57;;;;;;;21.73;81.48;98587.38;5049370;28;20226;-82
2023/08/10 10:02:42;;;;;;;2.30;2.10;;;;;;;21.87;83.04;98589.44;5051332;28;20311;-80
2023/08/10 10:05:11;;;;;;;3.70;2.40;;;;;;;21.82;81.03;98581.03;5052130;28;20614;-82
2023/08/10 10:07:37;;;;;;;2.50;2.30;;;;;;;21.77;79.50;98573.44;5051794;28;20207;-82
2023/08/10 10:10:04;;;;;;;2.27;2.07;;;;;;;21.78;80.86;98582.34;5051874;28;20302;-82
2023/08/10 10:12:36;;;;;;;2.43;2.10;;;;;;;21.91;78.23;98563.88;5052085;28;20671;-82
2023/08/10 10:15:03;;;;;;;2.17;2.00;;;;;;;22.02;79.80;98571.63;5052190;28;20216;-82
2023/08/10 10:17:32;;;;;;;2.73;2.40;;;;;;;22.17;78.38;98569.94;5051849;28;20275;-82
2023/08/10 10:19:59;;;;;;;2.60;2.10;;;;;;;22.17;76.42;98559.19;5051301;28;20246;-83
2023/08/10 10:22:27;;;;;;;3.13;2.20;;;;;;;22.16;75.55;98557.50;5052154;28;20580;-83
2023/08/10 10:24:53;;;;;;;2.40;2.00;;;;;;;22.15;70.33;98532.44;5051863;28;20204;-83
2023/08/10 10:27:20;;;;;;;2.10;1.90;;;;;;;22.14;69.52;98528.03;5051559;28;20212;-82
2023/08/10 10:29:52;;;;;;;4.40;2.27;;;;;;;22.23;71.54;98534.28;5050441;28;20726;-83
2023/08/10 10:32:20;;;;;;;2.40;2.13;;;;;;;22.19;69.64;98520.31;5051616;28;20231;-83
2023/08/10 10:34:49;;;;;;;2.93;2.00;;;;;;;22.23;69.58;98520.81;5051675;28;20211;-83
2023/08/10 10:37:18;;;;;;;2.20;2.00;;;;;;;22.31;70.61;98528.91;5051218;28;20580;-82
2023/08/10 10:39:51;;;;;;;2.50;2.30;;;;;;;22.42;73.09;98537.47;5051570;28;20231;-83
2023/08/10 10:42:19;;;;;;;2.30;2.10;;;;;;;22.55;71.18;98529.72;5051583;28;20211;-83
2023/08/10 10:44:59;;;;;;;2.50;2.30;;;;;;;22.69;67.77;98512.88;5051632;28;20208;-83
2023/08/10 10:47:38;;;;;;;2.30;2.10;;;;;;;22.90;67.19;98505.03;5051608;28;20287;-83
2023/08/10 10:50:18;;;;;;;2.53;2.00;;;;;;;22.94;66.83;98501.00;5051126;28;20706;-83
2023/08/10 10:52:55;;;;;;;2.20;2.00;;;;;;;23.08;66.12;98492.16;5051486;28;20258;-83
2023/08/10 10:55:24;;;;;;;1.77;1.67;;;;;;;23.17;62.94;98480.34;5051160;28;20204;-83
2023/08/10 10:57:51;;;;;;;2.43;1.93;;;;;;;23.27;63.48;98475.59;5051288;28;20210;-83
2023/08/10 11:00:19;;;;;;;2.73;2.40;;;;;;;23.36;62.58;98479.09;5050873;28;20236;-82
2023/08/10 11:02:46;;;;;;;2.80;2.10;;;;;;;23.37;64.66;98492.41;5051218;28;20205;-84
2023/08/10 11:05:14;;;;;;;2.07;1.87;;;;;;;23.38;60.76;98472.50;5048871;28;20337;-84
2023/08/10 11:07:41;;;;;;;2.03;1.83;;;;;;;23.42;58.83;98454.91;5047955;28;20212;-84
2023/08/10 11:10:08;;;;;;;2.03;1.87;;;;;;;23.42;55.76;98452.22;5048001;28;20358;-84
2023/08/10 11:12:38;;;;;;;2.07;1.80;;;;;;;23.23;53.85;98447.28;5049265;28;20227;-84
2023/08/10 11:15:06;;;;;;;4.67;2.00;;;;;;;23.28;53.11;98444.91;5051277;28;20216;-84
2023/08/10 11:17:33;;;;;;;3.63;2.10;;;;;;;23.11;54.06;98443.25;5050779;28;20307;-84
2023/08/10 11:20:00;;;;;;;1.93;1.60;;;;;;;23.11;54.78;98453.22;5050504;28;20238;-83
2023/08/10 11:22:27;;;;;;;1.60;1.50;;;;;;;23.21;54.54;98443.94;5050652;28;20765;-83
2023/08/10 11:24:53;;;;;;;2.10;1.90;;;;;;;23.27;54.94;98453.16;5051032;28;20204;-82
2023/08/10 11:27:20;;;;;;;1.83;1.70;;;;;;;23.30;53.91;98452.81;5050546;28;20560;-82
2023/08/10 11:29:48;;;;;;;1.77;1.50;;;;;;;23.41;52.69;98430.84;5050694;28;20235;-83
2023/08/10 11:32:15;;;;;;;2.40;1.87;;;;;;;23.52;57.14;98469.03;5050819;28;20235;-83